Aérodrome :
LOGIN :

S'inscrire | Disclaimer

   EN    FR    IT 

 










Légende :    VFR   VFR Marginal   IFR   IFR Intensif   IFR Très Intensif
Visi : 
Plafond : 
>= 8 km
>= 3000ft
5 à 8 km
1000 à 3000 ft
1500m à 5 km
500 à 1000 ft
800 à 1500m
200 à 500 ft
< 800m
< 200 ft
Symboles :   Orages  Brouillard  Fortes neiges  Fortes précipitations  Vent > 20 kt
SIGMETs :   Divers  Orages  Givrage  Turbulence  Onde Orograph.  Cendres Volcan.






- Altitude de l'aérodrome : 607 ft
- Code IATA : BCM


LRBC - Bacău

DERNIER METAR :
  • 031930Z 01003KT 330V060 CAVOK 13/09 Q1006

METARs EXPIRÉS :
  • 031900Z 02003KT CAVOK 14/09 Q1006
  • 031830Z VRB02KT CAVOK 15/09 Q1006
  • 031800Z VRB01KT CAVOK 16/07 Q1005
  • 031730Z 36005KT CAVOK 17/06 Q1005
  • 031700Z 28004KT 240V320 CAVOK 19/08 Q1005

TAF TAF LRBC
Valide du 03 à 18h jusqu'au 04 à 03h UTC


031700Z 0318/0403 VRB04KT CAVOK
TEMPO 0401/0403 3000 BR



MET'MAP, la Météo Aéronautique d'un coup d'oeil ! - Copyright ORBIFLY Décembre 2007 - Disclaimer

ORBIFLY MET'MAP TEAM :

Programmation & Développement : Alexandra Zaïnal
Sur une idée originale de : Baudouin d'Aumeries
Assistance à la programmation : Marc-Olivier Méhu
Soutien technique & logistique : Manuel Goepfert

Contact : metmap@orbifly.com




SOURCES & CREDITS :

   NOAA